Time;durP1;ratioP1;P1;durP2;ratioP2;P2;SDS_P1;SDS_P2;PMS_P1;PMS_P2;Temp;Humidity;BMP_temperature;BMP_pressure;BME280_temperature;BME280_humidity;BME280_pressure;Samples;Min_cycle;Max_cycle;Signal;HPM_P1;HPM_P2
2023/11/23 00:01:20;;;;;;;7.40;5.70;;;17.10;64.90;;;;;;5098148;28;20036;-71
2023/11/23 00:03:45;;;;;;;8.23;5.05;;;17.00;64.90;;;;;;5098231;28;20490;-71
2023/11/23 00:06:11;;;;;;;6.78;4.95;;;17.00;64.90;;;;;;5094415;28;20035;-71
2023/11/23 00:08:36;;;;;;;6.32;5.00;;;17.00;65.00;;;;;;5102158;28;20032;-72
2023/11/23 00:11:03;;;;;;;6.78;5.00;;;17.00;65.00;;;;;;5089738;28;20564;-71
2023/11/23 00:13:28;;;;;;;6.10;4.85;;;17.00;65.10;;;;;;5099937;28;20035;-71
2023/11/23 00:15:53;;;;;;;7.57;4.90;;;17.00;65.00;;;;;;5100545;28;20028;-72
2023/11/23 00:18:19;;;;;;;6.95;4.53;;;17.00;65.00;;;;;;5093764;28;20509;-72
2023/11/23 00:20:45;;;;;;;5.65;4.55;;;17.00;65.10;;;;;;5099180;28;20024;-71
2023/11/23 00:23:11;;;;;;;7.63;4.53;;;17.00;65.10;;;;;;5091306;28;20036;-71
2023/11/23 00:25:37;;;;;;;4.88;3.90;;;16.90;65.00;;;;;;5095260;28;20504;-71
2023/11/23 00:28:02;;;;;;;6.05;4.38;;;16.90;65.10;;;;;;5093633;28;20161;-71
2023/11/23 00:30:28;;;;;;;5.70;4.53;;;17.00;65.10;;;;;;5097854;27;20038;-70
2023/11/23 00:32:53;;;;;;;7.70;4.82;;;16.90;65.00;;;;;;5104998;28;20028;-71
2023/11/23 00:35:19;;;;;;;6.95;4.47;;;16.90;65.10;;;;;;5103976;28;20031;-70
2023/11/23 00:37:45;;;;;;;5.18;3.90;;;16.90;65.10;;;;;;5105097;28;20027;-70
2023/11/23 00:40:12;;;;;;;5.07;4.03;;;16.90;65.70;;;;;;5103146;28;20513;-71
2023/11/23 00:42:38;;;;;;;6.35;4.30;;;16.90;65.20;;;;;;5105845;28;20042;-71
2023/11/23 00:45:04;;;;;;;5.00;4.07;;;16.90;65.20;;;;;;5101420;28;20024;-71
2023/11/23 00:47:30;;;;;;;6.82;4.15;;;16.80;65.20;;;;;;5098360;28;20126;-71
2023/11/23 00:49:56;;;;;;;6.85;4.63;;;16.80;65.20;;;;;;5103679;28;20542;-71
2023/11/23 00:52:21;;;;;;;6.65;4.60;;;16.80;65.50;;;;;;5100325;28;20032;-71
2023/11/23 00:54:47;;;;;;;5.43;4.13;;;16.80;65.20;;;;;;5102254;28;20122;-69
2023/11/23 00:57:13;;;;;;;5.40;4.43;;;16.80;65.30;;;;;;5098629;28;20111;-71
2023/11/23 00:59:38;;;;;;;4.47;3.88;;;16.80;65.30;;;;;;5102976;28;20490;-71
2023/11/23 01:02:05;;;;;;;5.55;3.92;;;16.80;65.30;;;;;;5087025;28;20070;-70
2023/11/23 01:04:31;;;;;;;4.90;4.40;;;16.80;65.30;;;;;;5095651;28;20023;-71
2023/11/23 01:06:56;;;;;;;4.80;3.90;;;16.80;65.40;;;;;;5104493;28;20024;-69
2023/11/23 01:09:22;;;;;;;5.18;3.60;;;16.80;65.30;;;;;;5088857;28;20021;-71
2023/11/23 01:11:47;;;;;;;5.47;4.20;;;16.80;65.30;;;;;;5096316;28;20032;-70
2023/11/23 01:14:14;;;;;;;4.28;3.55;;;16.80;65.20;;;;;;5105092;28;20169;-70
2023/11/23 01:16:39;;;;;;;4.30;3.78;;;17.00;64.80;;;;;;5089761;28;20028;-71
2023/11/23 01:19:05;;;;;;;5.43;4.00;;;17.30;64.10;;;;;;5095882;28;20035;-71
2023/11/23 01:21:30;;;;;;;3.97;3.35;;;17.70;63.00;;;;;;5097012;28;20028;-71
2023/11/23 01:23:56;;;;;;;5.70;4.00;;;18.20;61.90;;;;;;5094772;28;20115;-71
2023/11/23 01:26:21;;;;;;;4.13;3.40;;;18.50;61.20;;;;;;5102364;28;20063;-70
2023/11/23 01:28:47;;;;;;;5.78;4.05;;;18.60;60.80;;;;;;5095289;28;20137;-70
2023/11/23 01:31:13;;;;;;;4.70;3.58;;;18.70;60.70;;;;;;5105174;28;20055;-71
2023/11/23 01:33:38;;;;;;;3.83;3.33;;;18.60;60.70;;;;;;5095602;28;20028;-71
2023/11/23 01:36:04;;;;;;;4.43;3.22;;;18.50;60.90;;;;;;5089318;28;20028;-71
2023/11/23 01:38:30;;;;;;;3.67;3.13;;;18.50;61.10;;;;;;5098078;28;20028;-71
2023/11/23 01:40:55;;;;;;;4.32;3.22;;;18.40;61.10;;;;;;5097970;28;20027;-71
2023/11/23 01:43:21;;;;;;;4.25;3.60;;;18.30;61.40;;;;;;5088408;28;20039;-71
2023/11/23 01:45:47;;;;;;;4.13;3.40;;;18.30;61.60;;;;;;5091763;28;20490;-67
2023/11/23 01:48:14;;;;;;;4.55;3.30;;;18.20;61.70;;;;;;5089410;28;20073;-72
2023/11/23 01:50:43;;;;;;;4.80;3.67;;;18.10;61.80;;;;;;5090745;28;20085;-72
2023/11/23 01:53:11;;;;;;;4.85;2.88;;;18.10;61.80;;;;;;5101432;28;20032;-72
2023/11/23 01:55:37;;;;;;;5.03;3.03;;;18.20;61.70;;;;;;5096990;28;20032;-71
2023/11/23 01:58:06;;;;;;;3.53;2.95;;;18.40;62.10;;;;;;5101030;28;20034;-72
2023/11/23 02:00:32;;;;;;;4.43;3.05;;;18.60;61.10;;;;;;5101774;28;20135;-71
2023/11/23 02:03:00;;;;;;;3.13;2.80;;;18.70;60.80;;;;;;5096408;28;20032;-69
2023/11/23 02:05:26;;;;;;;3.97;3.00;;;18.80;60.60;;;;;;5098095;28;20732;-71
2023/11/23 02:07:52;;;;;;;3.75;2.90;;;18.90;60.40;;;;;;5098875;28;20114;-72
2023/11/23 02:10:18;;;;;;;3.95;2.85;;;18.90;60.30;;;;;;5099435;28;21071;-71
2023/11/23 02:12:48;;;;;;;3.38;2.78;;;18.90;60.20;;;;;;5101088;28;20478;-71
2023/11/23 02:15:14;;;;;;;2.72;2.40;;;18.90;60.30;;;;;;5082365;28;20205;-71
2023/11/23 02:17:39;;;;;;;3.25;2.80;;;18.90;60.40;;;;;;5103454;28;20115;-71
2023/11/23 02:20:08;;;;;;;3.35;2.78;;;18.80;60.50;;;;;;5100781;28;20036;-70
2023/11/23 02:22:34;;;;;;;3.95;3.05;;;18.80;60.60;;;;;;5099333;28;20114;-71
2023/11/23 02:25:00;;;;;;;2.85;2.47;;;18.70;60.70;;;;;;5078688;28;20066;-69
2023/11/23 02:27:25;;;;;;;3.17;2.83;;;18.70;60.90;;;;;;5100478;28;20047;-71
2023/11/23 02:29:51;;;;;;;3.40;2.60;;;18.60;61.00;;;;;;5100786;28;20444;-71
2023/11/23 02:32:37;;;;;;;4.72;2.88;;;18.50;61.10;;;;;;5092941;28;20489;-71
2023/11/23 02:35:04;;;;;;;5.28;2.75;;;18.50;61.30;;;;;;5079369;28;20043;-71
2023/11/23 02:37:29;;;;;;;2.90;2.60;;;18.40;61.40;;;;;;5101725;28;20123;-71
2023/11/23 02:39:55;;;;;;;2.85;2.55;;;18.40;61.60;;;;;;5097210;28;20126;-71
2023/11/23 02:42:20;;;;;;;3.35;2.70;;;18.30;61.70;;;;;;5100822;28;20029;-71
2023/11/23 02:44:46;;;;;;;3.92;3.30;;;18.30;61.90;;;;;;5087895;28;20025;-70
2023/11/23 02:47:11;;;;;;;4.25;3.40;;;18.20;62.00;;;;;;5091929;28;20043;-71
2023/11/23 02:49:37;;;;;;;3.05;2.75;;;18.20;62.20;;;;;;5093030;28;20028;-71
2023/11/23 02:52:03;;;;;;;3.25;2.65;;;18.10;62.40;;;;;;5086487;28;20081;-71
2023/11/23 02:54:28;;;;;;;2.35;2.15;;;18.00;62.60;;;;;;5093858;28;20172;-71
2023/11/23 02:56:53;;;;;;;2.83;2.55;;;18.00;62.80;;;;;;5088954;28;20032;-71
2023/11/23 02:59:19;;;;;;;2.50;2.30;;;17.90;63.00;;;;;;5094436;28;20481;-70
2023/11/23 03:01:45;;;;;;;2.53;2.25;;;17.90;63.20;;;;;;5109401;28;20548;-68
2023/11/23 03:04:10;;;;;;;2.92;2.40;;;17.80;63.30;;;;;;5094122;28;20031;-70
2023/11/23 03:06:36;;;;;;;3.10;2.60;;;17.70;63.10;;;;;;5082480;28;20107;-70
2023/11/23 03:09:02;;;;;;;2.60;2.33;;;17.70;63.20;;;;;;5097360;28;20020;-71
2023/11/23 03:11:28;;;;;;;3.20;2.53;;;17.70;63.30;;;;;;5096520;28;20039;-72
2023/11/23 03:13:54;;;;;;;3.25;2.30;;;17.60;63.30;;;;;;5093717;28;20036;-71
2023/11/23 03:16:20;;;;;;;2.58;2.10;;;17.70;63.30;;;;;;5099761;28;20043;-72
2023/11/23 03:18:46;;;;;;;3.42;2.30;;;17.60;63.20;;;;;;5101083;28;20024;-71
2023/11/23 03:21:12;;;;;;;2.65;2.42;;;17.60;63.40;;;;;;5098093;28;20051;-70
2023/11/23 03:23:38;;;;;;;2.92;2.40;;;17.60;63.40;;;;;;5076230;28;20044;-71
2023/11/23 03:26:04;;;;;;;3.05;2.00;;;17.60;63.40;;;;;;5087397;28;20038;-70
2023/11/23 03:28:30;;;;;;;3.78;2.78;;;17.50;63.40;;;;;;5101286;28;20057;-71
2023/11/23 03:30:56;;;;;;;2.75;2.17;;;17.50;63.40;;;;;;5099635;28;20032;-72
2023/11/23 03:33:21;;;;;;;2.65;2.22;;;17.50;63.60;;;;;;5082892;28;20139;-70
2023/11/23 03:35:47;;;;;;;3.80;2.42;;;17.40;63.60;;;;;;5102083;28;20035;-72
2023/11/23 03:38:13;;;;;;;3.03;2.35;;;17.40;63.90;;;;;;5101713;28;20039;-70
2023/11/23 03:40:38;;;;;;;2.80;2.60;;;17.40;63.70;;;;;;5101135;28;20039;-70
2023/11/23 03:43:04;;;;;;;2.70;2.30;;;17.40;63.80;;;;;;5100613;28;20031;-70
2023/11/23 03:45:30;;;;;;;2.67;2.20;;;17.30;63.80;;;;;;5101630;28;20093;-69
2023/11/23 03:47:56;;;;;;;2.63;2.42;;;17.30;63.80;;;;;;5101816;28;20063;-71
2023/11/23 03:50:24;;;;;;;2.50;2.30;;;17.30;64.00;;;;;;5101480;28;20062;-72
2023/11/23 03:52:53;;;;;;;3.55;2.50;;;17.30;64.00;;;;;;5102157;28;20032;-72
2023/11/23 03:55:18;;;;;;;3.00;2.47;;;17.30;64.10;;;;;;5103584;28;20659;-72
2023/11/23 03:57:48;;;;;;;3.92;2.17;;;17.20;64.10;;;;;;5103460;28;20114;-72
2023/11/23 04:00:15;;;;;;;2.65;1.92;;;17.20;64.20;;;;;;5102205;28;20498;-72
2023/11/23 04:02:43;;;;;;;2.30;2.10;;;17.20;64.40;;;;;;5105152;28;20063;-71
2023/11/23 04:05:08;;;;;;;3.50;2.60;;;17.10;64.40;;;;;;5100226;28;20115;-72
2023/11/23 04:07:34;;;;;;;2.50;2.13;;;17.10;64.40;;;;;;5101638;28;20094;-69
2023/11/23 04:10:00;;;;;;;2.50;2.28;;;17.10;64.40;;;;;;5084103;28;20035;-70
2023/11/23 04:12:26;;;;;;;3.35;2.53;;;17.10;64.40;;;;;;5103451;28;20406;-70
2023/11/23 04:14:51;;;;;;;2.55;1.95;;;17.10;64.40;;;;;;5100739;28;20036;-69
2023/11/23 04:17:17;;;;;;;2.97;2.30;;;17.10;64.50;;;;;;5084050;28;20027;-70
2023/11/23 04:19:43;;;;;;;2.30;1.95;;;17.10;64.60;;;;;;5097265;28;20140;-70
2023/11/23 04:22:09;;;;;;;3.17;2.45;;;17.10;64.60;;;;;;5093763;28;20401;-72
2023/11/23 04:24:40;;;;;;;2.78;2.03;;;17.00;64.60;;;;;;5102383;28;20066;-72
2023/11/23 04:27:07;;;;;;;2.47;2.22;;;17.00;64.60;;;;;;5098365;28;20469;-71
2023/11/23 04:29:32;;;;;;;2.25;1.90;;;17.00;64.60;;;;;;5100835;28;20024;-71
2023/11/23 04:31:58;;;;;;;2.25;2.05;;;17.00;64.60;;;;;;5101163;28;20554;-70
2023/11/23 04:34:23;;;;;;;3.22;2.00;;;17.00;64.70;;;;;;5102435;28;20124;-70
2023/11/23 04:36:49;;;;;;;2.63;2.20;;;16.90;64.60;;;;;;5100919;28;20612;-71
2023/11/23 04:39:15;;;;;;;2.35;2.00;;;17.00;65.00;;;;;;5101733;28;20032;-72
2023/11/23 04:41:40;;;;;;;2.47;1.92;;;16.90;64.60;;;;;;5103523;28;20043;-71
2023/11/23 04:44:06;;;;;;;2.53;1.95;;;16.90;64.70;;;;;;5100140;28;20039;-69
2023/11/23 04:46:33;;;;;;;3.10;1.80;;;16.90;64.70;;;;;;5101912;28;20028;-69
2023/11/23 04:48:58;;;;;;;2.67;1.92;;;16.90;64.70;;;;;;5099673;28;20028;-69
2023/11/23 04:51:24;;;;;;;2.38;2.22;;;16.90;64.70;;;;;;5099190;28;20513;-70
2023/11/23 04:53:49;;;;;;;2.67;2.15;;;16.90;64.70;;;;;;5101414;28;20035;-71
2023/11/23 04:56:15;;;;;;;1.83;1.70;;;16.90;64.70;;;;;;5097875;28;20047;-70
2023/11/23 04:58:40;;;;;;;1.92;1.73;;;16.90;64.70;;;;;;5102343;28;20028;-71
2023/11/23 05:01:07;;;;;;;2.30;2.05;;;16.90;64.70;;;;;;5100556;28;20448;-71
2023/11/23 05:03:33;;;;;;;2.55;2.28;;;16.90;64.70;;;;;;5102725;28;20057;-71
2023/11/23 05:05:58;;;;;;;2.15;1.88;;;16.90;64.70;;;;;;5102983;28;20379;-70
2023/11/23 05:08:24;;;;;;;1.95;1.75;;;16.80;64.70;;;;;;5084598;28;20034;-68
2023/11/23 05:10:50;;;;;;;1.65;1.50;;;16.80;64.80;;;;;;5102507;28;20039;-69
2023/11/23 05:13:15;;;;;;;2.15;1.75;;;16.80;64.80;;;;;;5101696;28;20540;-69
2023/11/23 05:15:41;;;;;;;1.70;1.52;;;16.80;64.80;;;;;;5103445;28;20043;-67
2023/11/23 05:18:07;;;;;;;2.13;1.92;;;16.80;64.80;;;;;;5098218;28;20043;-68
2023/11/23 05:20:33;;;;;;;2.17;1.95;;;16.80;64.80;;;;;;5097416;28;20078;-69
2023/11/23 05:22:59;;;;;;;2.20;1.98;;;16.80;64.80;;;;;;5101262;28;20076;-66
2023/11/23 05:25:24;;;;;;;2.13;1.80;;;16.80;64.90;;;;;;5101651;28;20040;-69
2023/11/23 05:27:50;;;;;;;2.00;1.80;;;16.80;64.90;;;;;;5101347;28;20119;-69
2023/11/23 05:30:17;;;;;;;2.42;1.92;;;16.70;64.80;;;;;;5100619;28;20120;-69
2023/11/23 05:32:42;;;;;;;2.00;1.85;;;16.70;64.90;;;;;;5102180;28;20461;-69
2023/11/23 05:35:08;;;;;;;2.08;1.45;;;16.70;64.90;;;;;;5097351;28;20120;-68
2023/11/23 05:37:34;;;;;;;1.90;1.70;;;16.70;65.00;;;;;;5103838;28;20084;-69
2023/11/23 05:39:59;;;;;;;1.98;1.60;;;16.70;65.00;;;;;;5102269;28;20032;-69
2023/11/23 05:42:26;;;;;;;1.85;1.67;;;16.70;65.00;;;;;;5102845;28;20556;-68
2023/11/23 05:44:52;;;;;;;2.75;1.90;;;16.70;65.00;;;;;;5101187;28;20088;-69
2023/11/23 05:47:17;;;;;;;2.38;2.17;;;16.60;65.00;;;;;;5081978;28;20036;-68
2023/11/23 05:49:43;;;;;;;1.90;1.73;;;16.60;65.00;;;;;;5100216;28;20067;-68
2023/11/23 05:52:09;;;;;;;2.33;1.83;;;16.60;65.00;;;;;;5098823;28;20059;-68
2023/11/23 05:54:35;;;;;;;2.08;1.75;;;16.70;65.00;;;;;;5099488;28;20107;-69
2023/11/23 05:57:00;;;;;;;4.45;1.95;;;16.70;64.90;;;;;;5098075;28;20115;-69
2023/11/23 05:59:25;;;;;;;2.33;1.90;;;16.90;64.60;;;;;;5100459;28;20028;-68
2023/11/23 06:01:51;;;;;;;1.70;1.60;;;17.10;64.00;;;;;;5098393;28;20071;-68
2023/11/23 06:04:17;;;;;;;1.70;1.60;;;17.30;63.20;;;;;;5080454;28;20032;-66
2023/11/23 06:06:42;;;;;;;2.38;1.85;;;17.60;62.60;;;;;;5101725;28;20605;-68
2023/11/23 06:09:11;;;;;;;2.25;1.60;;;17.90;61.90;;;;;;5098745;28;20028;-70
2023/11/23 06:11:37;;;;;;;2.70;1.88;;;18.20;61.20;;;;;;5099076;28;20035;-67
2023/11/23 06:14:03;;;;;;;2.40;1.83;;;18.40;60.80;;;;;;5099319;28;20050;-68
2023/11/23 06:16:28;;;;;;;1.63;1.48;;;18.70;60.20;;;;;;5098545;28;20063;-69
2023/11/23 06:18:54;;;;;;;2.28;1.90;;;18.90;59.80;;;;;;5095536;28;20028;-70
2023/11/23 06:21:19;;;;;;;2.05;1.60;;;19.10;59.20;;;;;;5098025;28;20059;-69
2023/11/23 06:23:47;;;;;;;3.05;1.45;;;19.30;59.00;;;;;;5099823;28;20039;-69
2023/11/23 06:26:13;;;;;;;2.83;1.45;;;19.50;58.70;;;;;;5096062;28;20050;-68
2023/11/23 06:28:38;;;;;;;1.70;1.40;;;19.70;58.30;;;;;;5099983;28;20121;-68
2023/11/23 06:31:04;;;;;;;1.83;1.63;;;19.80;58.20;;;;;;5096745;28;20040;-68
2023/11/23 06:33:30;;;;;;;2.30;1.63;;;19.80;58.10;;;;;;5101943;28;20036;-67
2023/11/23 06:35:56;;;;;;;1.60;1.48;;;19.80;57.90;;;;;;5102374;28;20047;-69
2023/11/23 06:38:24;;;;;;;1.40;1.30;;;19.80;58.00;;;;;;5099064;28;20417;-67
2023/11/23 06:40:50;;;;;;;1.70;1.50;;;19.80;58.20;;;;;;5099915;28;20036;-70
2023/11/23 06:43:15;;;;;;;2.80;1.70;;;19.80;58.30;;;;;;5101388;28;20024;-68
2023/11/23 06:45:41;;;;;;;2.00;1.63;;;19.70;58.60;;;;;;5096854;28;20084;-68
2023/11/23 06:48:06;;;;;;;1.73;1.50;;;19.50;58.70;;;;;;5097318;28;20513;-68
2023/11/23 06:50:32;;;;;;;2.10;1.48;;;19.50;59.00;;;;;;5099687;28;20401;-69
2023/11/23 06:53:01;;;;;;;2.08;1.83;;;19.40;59.40;;;;;;5097857;28;20055;-70
2023/11/23 06:55:26;;;;;;;1.30;1.20;;;19.30;59.40;;;;;;5097035;28;20088;-69
2023/11/23 06:57:52;;;;;;;2.10;1.88;;;19.20;59.60;;;;;;5100546;28;20662;-70
2023/11/23 07:00:23;;;;;;;2.00;1.65;;;19.20;59.80;;;;;;5096379;28;20118;-69
2023/11/23 07:02:55;;;;;;;1.40;1.30;;;19.10;59.90;;;;;;5099588;28;20028;-70
2023/11/23 07:05:21;;;;;;;1.67;1.58;;;19.00;60.20;;;;;;5098018;28;20028;-70
2023/11/23 07:07:47;;;;;;;2.22;1.92;;;18.90;60.40;;;;;;5102208;28;20031;-70
2023/11/23 07:10:14;;;;;;;1.63;1.38;;;18.80;60.50;;;;;;5099178;28;20031;-69
2023/11/23 07:12:40;;;;;;;1.70;1.60;;;18.80;60.70;;;;;;5084167;28;20032;-69
2023/11/23 07:15:06;;;;;;;2.13;1.73;;;18.70;60.90;;;;;;5095165;28;20123;-66
2023/11/23 07:17:32;;;;;;;1.95;1.70;;;18.60;61.00;;;;;;5095665;28;20073;-69
2023/11/23 07:19:57;;;;;;;1.73;1.60;;;18.50;61.20;;;;;;5096825;28;20024;-69
2023/11/23 07:22:23;;;;;;;3.30;1.75;;;18.50;61.40;;;;;;5097718;28;20064;-69
2023/11/23 07:24:49;;;;;;;2.40;2.03;;;18.40;61.70;;;;;;5100021;28;20035;-69
2023/11/23 07:27:15;;;;;;;2.03;1.80;;;18.30;61.80;;;;;;5096707;28;20092;-69
2023/11/23 07:29:40;;;;;;;2.65;1.55;;;18.30;62.20;;;;;;5097892;28;20754;-70
2023/11/23 07:32:08;;;;;;;2.03;1.55;;;18.20;62.20;;;;;;5095771;28;20098;-69
2023/11/23 07:34:34;;;;;;;3.72;1.92;;;18.20;62.60;;;;;;5097710;28;20036;-69
2023/11/23 07:37:00;;;;;;;1.90;1.70;;;18.10;62.50;;;;;;5098592;28;20422;-70
2023/11/23 07:39:26;;;;;;;2.65;1.98;;;18.10;62.70;;;;;;5097329;28;20134;-69
2023/11/23 07:41:52;;;;;;;2.45;2.25;;;18.00;62.80;;;;;;5101252;28;20024;-69
2023/11/23 07:44:20;;;;;;;2.55;1.77;;;18.00;62.90;;;;;;5098846;28;20024;-70
2023/11/23 07:46:46;;;;;;;3.30;2.15;;;17.90;63.00;;;;;;5095813;28;20085;-70
2023/11/23 07:49:13;;;;;;;2.70;1.90;;;17.90;63.00;;;;;;5079814;28;20422;-69
2023/11/23 07:51:38;;;;;;;2.50;2.08;;;17.80;62.90;;;;;;5102126;28;20035;-70
2023/11/23 07:54:04;;;;;;;3.53;1.80;;;17.80;62.90;;;;;;5104952;28;20032;-70
2023/11/23 07:56:31;;;;;;;2.72;2.10;;;17.80;63.60;;;;;;5099881;28;20502;-69
2023/11/23 07:58:57;;;;;;;3.35;2.00;;;17.80;62.90;;;;;;5101845;28;20445;-69
2023/11/23 08:01:22;;;;;;;3.30;2.50;;;17.70;62.90;;;;;;5094804;28;20028;-70
2023/11/23 08:03:48;;;;;;;3.45;2.58;;;17.70;62.90;;;;;;5090926;28;20036;-69
2023/11/23 08:06:14;;;;;;;2.88;2.08;;;17.70;63.00;;;;;;5094398;28;20165;-69
2023/11/23 08:08:40;;;;;;;3.58;2.60;;;17.60;63.10;;;;;;5097123;28;20063;-69
2023/11/23 08:11:06;;;;;;;2.60;2.40;;;17.60;63.20;;;;;;5073511;28;20653;-69
2023/11/23 08:13:32;;;;;;;3.28;2.63;;;17.60;63.20;;;;;;5091622;28;20056;-69
2023/11/23 08:16:00;;;;;;;5.85;2.35;;;17.50;63.90;;;;;;5104122;28;20030;-70
2023/11/23 08:18:25;;;;;;;3.95;2.60;;;17.50;63.30;;;;;;5082973;28;20494;-69
2023/11/23 08:20:51;;;;;;;3.30;2.15;;;17.50;63.30;;;;;;5096325;28;20039;-69
2023/11/23 08:23:17;;;;;;;3.35;2.15;;;17.40;63.30;;;;;;5105386;28;20111;-69
2023/11/23 08:25:42;;;;;;;3.67;2.65;;;17.40;63.40;;;;;;5092101;28;20412;-69
2023/11/23 08:28:08;;;;;;;2.90;2.28;;;17.40;63.50;;;;;;5106508;28;20114;-66
2023/11/23 08:30:33;;;;;;;3.47;2.42;;;17.40;63.60;;;;;;5097946;28;20063;-69
2023/11/23 08:32:59;;;;;;;3.60;2.70;;;17.30;63.70;;;;;;5100634;28;20518;-69
2023/11/23 08:35:24;;;;;;;2.60;2.40;;;17.30;63.80;;;;;;5099459;28;20040;-69
2023/11/23 08:37:50;;;;;;;5.03;2.60;;;17.30;63.80;;;;;;5103879;28;20047;-69
2023/11/23 08:40:15;;;;;;;3.08;2.28;;;17.30;63.80;;;;;;5098755;28;20036;-69
2023/11/23 08:42:41;;;;;;;3.35;2.58;;;17.30;63.90;;;;;;5100564;28;20038;-70
2023/11/23 08:45:08;;;;;;;3.10;2.40;;;17.30;64.00;;;;;;5103176;28;20371;-69
2023/11/23 08:47:33;;;;;;;3.65;2.83;;;17.20;64.00;;;;;;5103655;28;20505;-69
2023/11/23 08:49:59;;;;;;;5.78;2.80;;;17.20;64.10;;;;;;5098652;28;20020;-69
2023/11/23 08:52:24;;;;;;;2.85;2.20;;;17.20;64.10;;;;;;5100452;28;20115;-68
2023/11/23 08:54:50;;;;;;;5.15;3.00;;;17.20;64.20;;;;;;5102295;28;20077;-69
2023/11/23 08:57:16;;;;;;;3.40;2.55;;;17.20;64.20;;;;;;5100703;28;20436;-69
2023/11/23 08:59:41;;;;;;;3.85;2.42;;;17.10;64.20;;;;;;5102558;28;20109;-69
2023/11/23 09:02:07;;;;;;;3.30;2.40;;;17.10;64.20;;;;;;5099514;28;20052;-69
2023/11/23 09:04:37;;;;;;;3.25;2.60;;;17.10;64.20;;;;;;5093685;28;20063;-69
2023/11/23 09:07:03;;;;;;;3.30;2.75;;;17.10;64.30;;;;;;5081358;28;20020;-69
2023/11/23 09:09:29;;;;;;;3.90;2.95;;;17.10;64.30;;;;;;5095294;28;20027;-69
2023/11/23 09:11:55;;;;;;;3.53;2.60;;;17.10;64.30;;;;;;5098088;28;20509;-69
2023/11/23 09:14:20;;;;;;;4.47;2.45;;;17.10;64.30;;;;;;5079571;28;20039;-69
2023/11/23 09:16:46;;;;;;;3.80;2.65;;;17.10;64.30;;;;;;5098051;28;20422;-70
2023/11/23 09:19:12;;;;;;;3.10;2.60;;;17.10;64.30;;;;;;5096373;28;20085;-69
2023/11/23 09:21:37;;;;;;;3.40;2.72;;;17.00;64.30;;;;;;5090848;28;20470;-68
2023/11/23 09:24:05;;;;;;;4.90;2.72;;;17.00;64.30;;;;;;5100482;28;20378;-70
2023/11/23 09:26:32;;;;;;;3.47;2.50;;;17.00;64.30;;;;;;5101478;28;20032;-70
2023/11/23 09:28:58;;;;;;;2.53;2.33;;;17.00;64.40;;;;;;5082842;28;20549;-69
2023/11/23 09:31:28;;;;;;;2.60;2.38;;;17.00;64.40;;;;;;5097964;28;20450;-69
2023/11/23 09:33:53;;;;;;;3.25;2.50;;;17.00;64.40;;;;;;5098882;28;20028;-69
2023/11/23 09:36:20;;;;;;;2.97;2.60;;;17.00;64.40;;;;;;5104256;28;20076;-69
2023/11/23 09:38:46;;;;;;;2.50;2.30;;;17.00;64.50;;;;;;5094617;28;20032;-70
2023/11/23 09:41:18;;;;;;;4.05;2.72;;;17.00;64.40;;;;;;5103055;28;20032;-68
2023/11/23 09:43:50;;;;;;;2.80;2.22;;;16.90;64.40;;;;;;5098758;28;20032;-70
2023/11/23 09:46:16;;;;;;;3.15;2.28;;;16.90;64.50;;;;;;5099984;28;20343;-69
2023/11/23 09:48:45;;;;;;;2.55;2.13;;;16.90;64.50;;;;;;5099856;28;20043;-68
2023/11/23 09:51:11;;;;;;;4.13;2.42;;;16.90;64.50;;;;;;5101043;28;20050;-69
2023/11/23 09:53:37;;;;;;;3.05;2.75;;;16.90;64.40;;;;;;5097378;28;20131;-69
2023/11/23 09:56:06;;;;;;;2.95;2.38;;;16.90;64.50;;;;;;5081685;28;20394;-70
2023/11/23 09:58:32;;;;;;;2.45;2.22;;;16.90;64.50;;;;;;5089192;28;20047;-69
2023/11/23 10:01:02;;;;;;;2.60;2.00;;;16.90;64.50;;;;;;5081950;28;20028;-69
2023/11/23 10:03:33;;;;;;;4.45;2.38;;;16.90;64.50;;;;;;5097502;28;20040;-69
2023/11/23 10:05:59;;;;;;;4.25;2.65;;;16.80;64.40;;;;;;5079639;28;20028;-69
2023/11/23 10:08:27;;;;;;;3.45;2.45;;;16.90;64.50;;;;;;5079028;28;20024;-69
2023/11/23 10:10:53;;;;;;;2.80;2.20;;;16.80;64.50;;;;;;5098675;28;20039;-70
2023/11/23 10:13:19;;;;;;;2.78;2.03;;;16.80;64.40;;;;;;5096326;28;20383;-69
2023/11/23 10:15:45;;;;;;;3.10;2.08;;;16.80;64.50;;;;;;5099301;28;20036;-69
2023/11/23 10:18:11;;;;;;;4.57;2.47;;;16.80;64.40;;;;;;5098436;28;20028;-70
2023/11/23 10:20:37;;;;;;;3.08;2.42;;;16.80;64.40;;;;;;5099166;28;20039;-69
2023/11/23 10:23:04;;;;;;;2.55;1.88;;;16.80;64.40;;;;;;5097835;28;20333;-69
2023/11/23 10:25:43;;;;;;;3.33;2.20;;;16.80;64.40;;;;;;5097153;28;20042;-68
2023/11/23 10:28:08;;;;;;;2.80;2.05;;;16.80;64.40;;;;;;5101141;28;20026;-69
2023/11/23 10:30:39;;;;;;;2.55;1.88;;;16.80;64.40;;;;;;5094005;28;20028;-68
2023/11/23 10:33:05;;;;;;;2.95;2.40;;;16.80;64.40;;;;;;5094269;28;20035;-71
2023/11/23 10:35:38;;;;;;;2.60;2.20;;;16.80;64.40;;;;;;5094983;28;22334;-69
2023/11/23 10:38:05;;;;;;;2.83;2.40;;;16.80;64.40;;;;;;5100149;28;20036;-69
2023/11/23 10:40:32;;;;;;;3.78;2.45;;;16.70;64.50;;;;;;5095350;28;20066;-69
2023/11/23 10:43:01;;;;;;;3.40;2.10;;;16.70;64.50;;;;;;5094774;28;20118;-68
2023/11/23 10:45:27;;;;;;;2.28;1.98;;;16.80;64.50;;;;;;5100149;28;20438;-67
2023/11/23 10:47:54;;;;;;;2.72;2.05;;;16.70;64.50;;;;;;5097206;28;20105;-67
2023/11/23 10:50:20;;;;;;;2.75;2.25;;;16.80;64.50;;;;;;5096832;28;20413;-69
2023/11/23 10:52:47;;;;;;;2.30;1.92;;;16.70;64.50;;;;;;5094152;28;20032;-67
2023/11/23 10:55:14;;;;;;;3.10;2.10;;;16.70;64.50;;;;;;5098329;28;20043;-66
2023/11/23 10:57:47;;;;;;;2.92;2.38;;;16.70;64.50;;;;;;5099495;28;20478;-68
2023/11/23 11:00:16;;;;;;;1.83;1.67;;;16.70;64.50;;;;;;5087755;28;20024;-68
2023/11/23 11:02:45;;;;;;;2.58;1.92;;;16.70;64.50;;;;;;5094393;28;20292;-68
2023/11/23 11:05:29;;;;;;;2.63;1.90;;;16.70;64.50;;;;;;5095224;28;20038;-69
2023/11/23 11:08:00;;;;;;;3.05;2.20;;;16.70;64.50;;;;;;5096636;28;20294;-69
2023/11/23 11:10:32;;;;;;;2.30;1.98;;;16.70;64.50;;;;;;5098635;28;20036;-68
2023/11/23 11:13:08;;;;;;;3.00;2.60;;;16.70;64.50;;;;;;5096267;28;20533;-69
2023/11/23 11:15:34;;;;;;;2.33;2.08;;;16.70;64.50;;;;;;5099744;28;20062;-68
2023/11/23 11:18:10;;;;;;;3.83;1.83;;;16.80;64.40;;;;;;5098479;28;20165;-67
2023/11/23 11:20:39;;;;;;;2.65;2.35;;;16.90;64.20;;;;;;5098456;28;20032;-69
2023/11/23 11:23:04;;;;;;;3.03;1.80;;;17.10;63.70;;;;;;5095362;28;20024;-69
2023/11/23 11:25:40;;;;;;;3.15;1.80;;;17.30;63.10;;;;;;5096735;28;20046;-69
2023/11/23 11:28:14;;;;;;;2.30;1.75;;;17.50;62.50;;;;;;5100931;28;20032;-70
2023/11/23 11:30:41;;;;;;;2.92;1.95;;;17.70;62.00;;;;;;5092752;28;20036;-68
2023/11/23 11:33:08;;;;;;;2.38;2.17;;;17.90;61.50;;;;;;5093887;28;20048;-68
2023/11/23 11:35:46;;;;;;;2.08;1.75;;;18.20;61.10;;;;;;5097350;28;20085;-68
2023/11/23 11:38:15;;;;;;;2.78;2.15;;;18.30;60.70;;;;;;5100362;28;20024;-68
2023/11/23 11:40:47;;;;;;;2.03;1.65;;;18.50;60.40;;;;;;5097077;28;20137;-70
2023/11/23 11:43:14;;;;;;;2.40;1.40;;;18.60;60.10;;;;;;5097349;28;20062;-65
2023/11/23 11:45:41;;;;;;;2.05;1.60;;;18.70;59.80;;;;;;5098999;28;20039;-69
2023/11/23 11:48:06;;;;;;;1.80;1.60;;;18.90;59.60;;;;;;5076482;28;20111;-69
2023/11/23 11:50:32;;;;;;;2.05;1.63;;;19.00;59.40;;;;;;5099604;28;20442;-67
2023/11/23 11:52:58;;;;;;;1.95;1.80;;;19.10;59.00;;;;;;5098975;28;20023;-69
2023/11/23 11:55:26;;;;;;;2.45;1.75;;;19.20;59.00;;;;;;5102869;28;20038;-69
2023/11/23 11:57:52;;;;;;;2.08;1.60;;;19.20;58.90;;;;;;5100987;28;20051;-69
2023/11/23 12:00:17;;;;;;;3.03;1.90;;;19.30;58.80;;;;;;5096383;28;20031;-69
2023/11/23 12:02:43;;;;;;;2.45;1.92;;;19.30;58.70;;;;;;5104329;28;20504;-69
2023/11/23 12:05:09;;;;;;;1.67;1.40;;;19.30;58.80;;;;;;5086578;28;20031;-69
2023/11/23 12:07:35;;;;;;;2.67;1.88;;;19.30;58.90;;;;;;5104219;28;20024;-68
2023/11/23 12:10:00;;;;;;;2.95;1.90;;;19.20;59.00;;;;;;5101178;28;20039;-68
2023/11/23 12:12:26;;;;;;;1.70;1.50;;;19.20;59.20;;;;;;5104399;28;20056;-68
2023/11/23 12:14:56;;;;;;;1.85;1.63;;;19.10;59.80;;;;;;5099644;28;20076;-68
2023/11/23 12:17:22;;;;;;;2.58;1.70;;;19.00;59.50;;;;;;5101766;28;20031;-68
2023/11/23 12:19:54;;;;;;;1.77;1.42;;;19.00;59.70;;;;;;5099281;28;20235;-70
2023/11/23 12:22:25;;;;;;;2.83;1.27;;;18.90;59.80;;;;;;5100822;28;20020;-68
2023/11/23 12:24:51;;;;;;;2.42;1.50;;;18.90;60.10;;;;;;5100898;28;20202;-67
2023/11/23 12:27:18;;;;;;;1.85;1.52;;;18.80;60.20;;;;;;5081893;28;20030;-69
2023/11/23 12:29:43;;;;;;;1.83;1.50;;;18.70;60.30;;;;;;5083525;28;20047;-69
2023/11/23 12:32:10;;;;;;;2.00;1.42;;;18.60;60.50;;;;;;5079765;28;20090;-68
2023/11/23 12:34:35;;;;;;;1.65;1.50;;;18.60;60.60;;;;;;5096676;28;20517;-67
2023/11/23 12:37:02;;;;;;;3.00;1.60;;;18.50;60.70;;;;;;5100257;28;20040;-68
2023/11/23 12:39:30;;;;;;;1.85;1.50;;;18.50;60.90;;;;;;5102470;28;20024;-68
2023/11/23 12:41:59;;;;;;;2.17;1.85;;;18.40;61.00;;;;;;5101299;28;20035;-68
2023/11/23 12:44:25;;;;;;;2.45;1.20;;;18.30;61.20;;;;;;5098667;28;20107;-70